Jakin, Georgia
Current Conditions -  °F | °C
As of 6:53 PM on Sunday 21 Dec 2014 (Local Time) from KMAI Reporting Station
Haze Haze  
Wind Chill: 54°   Ceiling: 400
Heat Index: 54°   Visibility: 5mi
Dew Point: 54°   Wind: 8mph
Humidity: 100%   Direction: 40°NE
Pressure: 30.05"   Gusts: NA
Location:  31.09°N, 84.98°W
Report Text: KMAI 212353Z AUTO 04007KT 5SM BR OVC004 12/12 A3005 RMK AO2 SLP176 60000 T01220122 10128 20122 51012 $
Loading
Personal Weather Stations






























Interactive Weather Map New forecast layout! Learn more

10-Day Weather Forecast

Advertisements
Track Severe Weather on mobile